Hauptseite
METAR-TAF:

METAR-TAF

Flughäfen :

Fliegerhorst Holzdorf

Holzdorf, Deutschland

Breite: 51-46N, Länge: 013-11E, Höhe: 79 m

Beobachtung

Neuester Wetterbericht von vor 17 Minuten, um 20:20 UTC
Wind 1 kt aus Südwest
Temperatur 5°C
Luftfeuchtigkeit 56%
Luftdruck 1018 hPa
Sichtweite: 7000 m

METAR: ETSH 032020Z AUTO 23001KT 7000 // ////// 05/M03 Q1018 ///

Zeit: 22:37 (20:37 UTC)

Prognose

Neuester Wetterbericht von vor 11 Stunden und 8 Minuten, um 09:29 UTC
Gültige Prognose vom 03 um 08 UTC bis 03 um 17 UTC
Wind 10 kt aus West
Sichtweite 10 km oder mehr
Aufgelockert bewölkt in der Höhe von 3500 ft
Zeitweise
vom 03 um 08 UTC bis 03 um 17 UTC
Wind 15 kt aus West, Böen bis zu 25 kt
Sichtweite: 1000 m
Durchbrochene Bewölkung in der Höhe von 3500 ft

TAF: ETSH 030929Z 0308/0317 27010KT 9999 NSW SCT035 TEMPO 0308/0317 27015G25KT 9999 NSW BKN035 CANCEL 1000

Wetterbeobachtungen und Prognosen von mehr als 4000 Flughäfen (METAR und TAF Bericht).

Die verfügbaren Stationen werden durch gelbe und rote Markierungen auf der Karte dargestellt.

Führen Sie die Maus auf sie, um den Namen der Station zu sehen.

Darauf klicken, um die Beobachtung von Wetterbeobachtungen und Prognosen zu sehen.

Um die Karte zu ändern : klicken Sie auf den grünen Tasten mit einem schwarzen Kreuz Zum Vergrößern, auf den grünen Button mit einem Gedankenstrich zu verkleinern, oder auf die grünen Pfeile für benachbarte Karten.


METAR-TAF: